createdAt,value
2017-07-09T00:00:39.966Z,2.63
2017-07-09T00:03:07.056Z,2.67
2017-07-09T00:05:33.391Z,2.73
2017-07-09T00:07:59.743Z,2.40
2017-07-09T00:10:26.053Z,2.77
2017-07-09T00:12:52.380Z,2.70
2017-07-09T00:15:18.705Z,2.73
2017-07-09T00:17:45.007Z,2.47
2017-07-09T00:20:12.064Z,2.60
2017-07-09T00:22:38.363Z,2.97
2017-07-09T00:25:04.660Z,2.60
2017-07-09T00:27:31.008Z,2.73
2017-07-09T00:29:57.387Z,3.07
2017-07-09T00:32:23.692Z,2.43
2017-07-09T00:34:50.010Z,2.60
2017-07-09T00:37:16.320Z,2.50
2017-07-09T00:39:42.660Z,2.30
2017-07-09T00:42:08.964Z,2.50
2017-07-09T00:44:35.271Z,3.23
2017-07-09T00:47:01.572Z,2.33
2017-07-09T00:49:27.901Z,3.00
2017-07-09T00:51:54.212Z,2.27
2017-07-09T00:54:20.524Z,2.40
2017-07-09T00:56:46.847Z,2.80
2017-07-09T00:59:13.152Z,3.10
2017-07-09T01:01:39.487Z,3.43
2017-07-09T01:04:05.799Z,2.07
2017-07-09T01:06:32.863Z,2.10
2017-07-09T01:08:59.196Z,2.20
2017-07-09T01:11:25.499Z,2.17
2017-07-09T01:13:52.541Z,2.30
2017-07-09T01:16:19.597Z,2.20
2017-07-09T01:18:45.908Z,2.70
2017-07-09T01:21:12.239Z,2.63
2017-07-09T01:23:38.551Z,2.40
2017-07-09T01:26:04.860Z,2.30
2017-07-09T01:28:31.171Z,2.33
2017-07-09T01:30:57.500Z,2.77
2017-07-09T01:33:24.157Z,2.10
2017-07-09T01:35:50.501Z,2.33
2017-07-09T01:38:16.809Z,2.33
2017-07-09T01:40:43.121Z,1.90
2017-07-09T01:43:09.423Z,2.43
2017-07-09T01:45:36.571Z,2.10
2017-07-09T01:48:03.636Z,2.83
2017-07-09T01:50:29.975Z,2.40
2017-07-09T01:52:56.307Z,2.37
2017-07-09T01:55:22.596Z,2.30
2017-07-09T01:57:48.930Z,3.00
2017-07-09T02:00:15.231Z,2.37
2017-07-09T02:02:42.586Z,2.67
2017-07-09T02:05:08.862Z,2.10
2017-07-09T02:07:35.886Z,2.97
2017-07-09T02:10:02.158Z,2.50
2017-07-09T02:12:28.418Z,2.10
2017-07-09T02:14:54.712Z,2.00
2017-07-09T02:17:20.981Z,2.33
2017-07-09T02:19:47.250Z,2.30
2017-07-09T02:22:14.269Z,2.07
2017-07-09T02:24:40.537Z,2.60
2017-07-09T02:27:06.845Z,2.23
2017-07-09T02:29:33.837Z,2.00
2017-07-09T02:32:00.088Z,2.30
2017-07-09T02:34:26.349Z,2.80
2017-07-09T02:36:54.370Z,2.40
2017-07-09T02:39:20.646Z,2.10
2017-07-09T02:41:47.646Z,2.07
2017-07-09T02:44:13.897Z,1.97
2017-07-09T02:46:40.166Z,2.20
2017-07-09T02:49:06.426Z,2.03
2017-07-09T02:51:32.728Z,1.77
2017-07-09T02:53:58.985Z,2.03
2017-07-09T02:56:25.269Z,2.10
2017-07-09T02:58:52.265Z,2.10
2017-07-09T03:01:18.534Z,2.20
2017-07-09T03:03:45.570Z,1.80
2017-07-09T03:06:11.825Z,2.20
2017-07-09T03:08:38.826Z,2.13
2017-07-09T03:11:06.115Z,2.53
2017-07-09T03:13:32.370Z,2.10
2017-07-09T03:15:58.665Z,2.30
2017-07-09T03:18:24.925Z,2.03
2017-07-09T03:20:51.182Z,2.10
2017-07-09T03:23:17.453Z,1.67
2017-07-09T03:25:44.468Z,2.40
2017-07-09T03:28:10.792Z,1.90
2017-07-09T03:30:37.063Z,2.47
2017-07-09T03:33:04.062Z,2.00
2017-07-09T03:35:30.339Z,1.80
2017-07-09T03:37:57.341Z,1.60
2017-07-09T03:40:23.636Z,2.00
2017-07-09T03:42:49.898Z,2.50
2017-07-09T03:45:16.163Z,2.10
2017-07-09T03:47:43.167Z,1.83
2017-07-09T03:50:09.438Z,2.47
2017-07-09T03:52:36.527Z,1.63
2017-07-09T03:55:02.819Z,1.93
2017-07-09T03:57:29.836Z,2.23
2017-07-09T03:59:56.106Z,1.90
2017-07-09T04:02:23.109Z,2.57
2017-07-09T04:04:49.388Z,2.03
2017-07-09T04:07:15.654Z,2.17
2017-07-09T04:09:41.910Z,2.17
2017-07-09T04:12:08.177Z,2.20
2017-07-09T04:14:34.438Z,1.70
2017-07-09T04:17:00.742Z,2.20
2017-07-09T04:19:27.010Z,2.40
2017-07-09T04:21:53.261Z,1.93
2017-07-09T04:24:19.523Z,2.20
2017-07-09T04:26:45.795Z,2.20
2017-07-09T04:29:12.079Z,1.97
2017-07-09T04:31:39.342Z,2.00
2017-07-09T04:34:05.599Z,2.40
2017-07-09T04:36:31.881Z,2.20
2017-07-09T04:38:58.153Z,2.10
2017-07-09T04:41:24.430Z,2.03
2017-07-09T04:43:51.422Z,1.67
2017-07-09T04:46:17.677Z,1.87
2017-07-09T04:48:43.938Z,1.73
2017-07-09T04:51:10.202Z,2.20
2017-07-09T04:53:36.474Z,1.70
2017-07-09T04:56:02.730Z,1.63
2017-07-09T04:58:28.990Z,1.50
2017-07-09T05:00:55.254Z,1.70
2017-07-09T05:03:22.518Z,2.27
2017-07-09T05:05:49.542Z,1.57
2017-07-09T05:08:15.803Z,1.77
2017-07-09T05:10:42.857Z,1.40
2017-07-09T05:13:09.113Z,1.83
2017-07-09T05:15:35.361Z,1.87
2017-07-09T05:18:01.641Z,1.90
2017-07-09T05:20:27.911Z,1.90
2017-07-09T05:22:54.398Z,1.60
2017-07-09T05:25:21.686Z,1.53
2017-07-09T05:27:49.154Z,1.53
2017-07-09T05:30:15.653Z,1.50
2017-07-09T05:32:41.906Z,1.33
2017-07-09T05:35:08.165Z,1.33
2017-07-09T05:37:34.438Z,2.20
2017-07-09T05:40:01.721Z,1.77
2017-07-09T05:42:27.997Z,1.30
2017-07-09T05:44:54.997Z,1.50
2017-07-09T05:47:21.267Z,1.73
2017-07-09T05:49:48.274Z,1.57
2017-07-09T05:52:14.533Z,1.80
2017-07-09T05:54:40.822Z,2.00
2017-07-09T05:57:07.086Z,1.87
2017-07-09T05:59:33.345Z,1.70
2017-07-09T06:01:59.602Z,1.77
2017-07-09T06:04:25.866Z,2.20
2017-07-09T06:06:52.142Z,2.43
2017-07-09T06:09:18.397Z,2.40
2017-07-09T06:11:44.641Z,2.70
2017-07-09T06:14:10.906Z,2.50
2017-07-09T06:16:37.910Z,2.40
2017-07-09T06:19:05.265Z,2.77
2017-07-09T06:21:31.545Z,1.87
2017-07-09T06:23:58.547Z,2.03
2017-07-09T06:26:24.813Z,2.53
2017-07-09T06:28:52.259Z,2.50
2017-07-09T06:31:19.274Z,2.00
2017-07-09T06:33:45.529Z,2.50
2017-07-09T06:36:12.821Z,2.63
2017-07-09T06:38:39.082Z,2.70
2017-07-09T06:41:05.330Z,2.30
2017-07-09T06:43:32.639Z,3.17
2017-07-09T06:45:59.963Z,2.83
2017-07-09T06:48:26.963Z,2.97
2017-07-09T06:50:53.233Z,2.70
2017-07-09T06:53:20.229Z,2.70
2017-07-09T06:55:46.509Z,3.03
2017-07-09T06:58:13.522Z,3.17
2017-07-09T07:00:39.810Z,4.47
2017-07-09T07:03:07.107Z,3.33
2017-07-09T07:05:33.365Z,4.70
2017-07-09T07:08:00.401Z,4.00
2017-07-09T07:10:26.677Z,4.20
2017-07-09T07:12:52.956Z,4.20
2017-07-09T07:15:19.219Z,4.80
2017-07-09T07:17:45.504Z,4.00
2017-07-09T07:20:11.804Z,4.10
2017-07-09T07:22:38.070Z,4.67
2017-07-09T07:25:04.333Z,4.70
2017-07-09T07:27:30.636Z,4.60
2017-07-09T07:29:56.908Z,4.50
2017-07-09T07:32:23.213Z,6.07
2017-07-09T07:34:49.474Z,5.50
2017-07-09T07:37:15.738Z,5.90
2017-07-09T07:39:42.006Z,6.97
2017-07-09T07:42:08.279Z,5.80
2017-07-09T07:44:34.537Z,6.00
2017-07-09T07:47:01.561Z,6.70
2017-07-09T07:49:27.827Z,6.57
2017-07-09T07:51:54.102Z,5.07
2017-07-09T07:54:20.389Z,5.40
2017-07-09T07:56:46.654Z,5.40
2017-07-09T07:59:12.910Z,4.70
2017-07-09T08:01:39.206Z,5.07
2017-07-09T08:04:05.460Z,3.97
2017-07-09T08:06:31.718Z,4.93
2017-07-09T08:08:58.719Z,4.13
2017-07-09T08:11:24.987Z,4.03
2017-07-09T08:13:53.027Z,3.63
2017-07-09T08:16:19.278Z,3.10
2017-07-09T08:18:45.541Z,3.50
2017-07-09T08:21:11.809Z,4.30
2017-07-09T08:23:38.066Z,3.50
2017-07-09T08:26:04.354Z,3.50
2017-07-09T08:28:30.613Z,3.93
2017-07-09T08:30:56.874Z,3.80
2017-07-09T08:33:23.124Z,3.13
2017-07-09T08:35:49.379Z,3.73
2017-07-09T08:38:15.666Z,3.57
2017-07-09T08:40:41.919Z,3.70
2017-07-09T08:43:08.182Z,3.57
2017-07-09T08:45:34.437Z,3.60
2017-07-09T08:48:00.709Z,3.73
2017-07-09T08:50:26.997Z,3.30
2017-07-09T08:52:54.009Z,3.67
2017-07-09T08:55:20.263Z,3.40
2017-07-09T08:57:48.278Z,3.10
2017-07-09T09:00:14.554Z,3.80
2017-07-09T09:02:41.587Z,3.00
2017-07-09T09:05:07.851Z,2.83
2017-07-09T09:07:34.127Z,2.87
2017-07-09T09:10:00.386Z,2.70
2017-07-09T09:12:27.381Z,2.80
2017-07-09T09:14:53.662Z,2.80
2017-07-09T09:17:20.663Z,3.30
2017-07-09T09:19:46.939Z,2.90
2017-07-09T09:22:13.941Z,2.70
2017-07-09T09:24:40.201Z,3.43
2017-07-09T09:27:06.485Z,3.00
2017-07-09T09:29:32.759Z,3.07
2017-07-09T09:31:59.768Z,3.53
2017-07-09T09:34:26.028Z,2.70
2017-07-09T09:36:52.289Z,2.93
2017-07-09T09:39:18.569Z,2.60
2017-07-09T09:41:44.825Z,2.67
2017-07-09T09:44:11.086Z,2.83
2017-07-09T09:46:37.350Z,2.47
2017-07-09T09:49:03.616Z,2.73
2017-07-09T09:51:31.667Z,2.60
2017-07-09T09:53:57.914Z,2.90
2017-07-09T09:56:24.908Z,2.90
2017-07-09T09:58:51.158Z,3.13
2017-07-09T10:01:17.414Z,2.63
2017-07-09T10:03:44.436Z,3.60
2017-07-09T10:06:10.695Z,3.30
2017-07-09T10:08:36.971Z,2.90
2017-07-09T10:11:03.229Z,3.57
2017-07-09T10:13:29.500Z,2.90
2017-07-09T10:15:55.802Z,2.77
2017-07-09T10:18:22.080Z,3.00
2017-07-09T10:20:48.347Z,3.37
2017-07-09T10:23:14.611Z,3.33
2017-07-09T10:25:40.873Z,3.90
2017-07-09T10:28:07.171Z,3.00
2017-07-09T10:30:33.432Z,3.20
2017-07-09T10:32:59.687Z,3.17
2017-07-09T10:35:25.957Z,3.53
2017-07-09T10:37:52.213Z,3.40
2017-07-09T10:40:18.502Z,4.20
2017-07-09T10:42:45.511Z,3.40
2017-07-09T10:45:11.799Z,3.00
2017-07-09T10:47:38.063Z,3.30
2017-07-09T10:50:04.326Z,3.30
2017-07-09T10:52:30.632Z,3.40
2017-07-09T10:54:56.889Z,3.67
2017-07-09T10:57:23.141Z,3.87
2017-07-09T10:59:49.746Z,4.10
2017-07-09T11:02:16.746Z,3.73
2017-07-09T11:04:44.134Z,3.77
2017-07-09T11:07:10.398Z,3.90
2017-07-09T11:09:36.674Z,3.63
2017-07-09T11:12:03.649Z,4.07
2017-07-09T11:14:30.662Z,3.33
2017-07-09T11:16:56.954Z,3.70
2017-07-09T11:19:23.234Z,3.53
2017-07-09T11:21:49.495Z,3.90
2017-07-09T11:24:15.776Z,3.90
2017-07-09T11:26:42.066Z,4.20
2017-07-09T11:29:08.354Z,3.77
2017-07-09T11:31:34.630Z,3.40
2017-07-09T11:34:00.892Z,3.33
2017-07-09T11:36:27.173Z,4.10
2017-07-09T11:38:54.166Z,3.17
2017-07-09T11:41:20.450Z,3.40
2017-07-09T11:43:46.712Z,4.53
2017-07-09T11:46:12.971Z,3.80
2017-07-09T11:48:39.234Z,3.27
2017-07-09T11:51:05.502Z,4.63
2017-07-09T11:53:31.778Z,4.20
2017-07-09T11:55:58.787Z,3.30
2017-07-09T11:58:25.045Z,4.20
2017-07-09T12:00:51.302Z,3.77
2017-07-09T12:03:17.558Z,3.97
2017-07-09T12:05:43.846Z,3.67
2017-07-09T12:08:11.129Z,4.47
2017-07-09T12:10:37.405Z,3.83
2017-07-09T12:13:03.682Z,3.30
2017-07-09T12:15:29.969Z,3.17
2017-07-09T12:17:56.990Z,2.80
2017-07-09T12:20:23.306Z,3.53
2017-07-09T12:22:49.581Z,3.70
2017-07-09T12:25:15.867Z,3.60
2017-07-09T12:27:42.126Z,3.80
2017-07-09T12:30:08.397Z,3.00
2017-07-09T12:32:34.657Z,3.40
2017-07-09T12:35:00.938Z,3.00
2017-07-09T12:37:27.192Z,3.90
2017-07-09T12:39:53.458Z,3.43
2017-07-09T12:42:19.741Z,3.40
2017-07-09T12:44:46.002Z,2.63
2017-07-09T12:47:12.274Z,2.93
2017-07-09T12:49:39.279Z,2.80
2017-07-09T12:52:05.542Z,3.20
2017-07-09T12:54:32.566Z,3.33
2017-07-09T12:56:58.830Z,2.37
2017-07-09T12:59:25.821Z,3.20
2017-07-09T13:01:52.115Z,2.93
2017-07-09T13:04:18.370Z,3.40
2017-07-09T13:06:44.649Z,2.80
2017-07-09T13:09:11.682Z,2.93
2017-07-09T13:11:37.950Z,2.80
2017-07-09T13:14:04.213Z,2.90
2017-07-09T13:16:30.489Z,3.10
2017-07-09T13:18:56.766Z,2.80
2017-07-09T13:21:23.026Z,3.10
2017-07-09T13:23:49.285Z,2.90
2017-07-09T13:26:15.572Z,2.97
2017-07-09T13:28:41.837Z,3.40
2017-07-09T13:31:08.122Z,3.23
2017-07-09T13:33:34.510Z,3.47
2017-07-09T13:36:00.774Z,2.70
2017-07-09T13:38:27.068Z,2.87
2017-07-09T13:40:53.325Z,2.97
2017-07-09T13:43:19.650Z,3.60
2017-07-09T13:45:45.914Z,4.10
2017-07-09T13:48:12.182Z,3.50
2017-07-09T13:50:38.440Z,3.30
2017-07-09T13:53:04.703Z,3.10
2017-07-09T13:55:30.996Z,2.93
2017-07-09T13:57:57.254Z,3.00
2017-07-09T14:00:23.535Z,3.43
2017-07-09T14:02:49.806Z,3.30
2017-07-09T14:05:16.071Z,3.10
2017-07-09T14:07:43.082Z,3.10
2017-07-09T14:10:09.353Z,2.87
2017-07-09T14:12:35.609Z,3.27
2017-07-09T14:15:01.917Z,3.30
2017-07-09T14:17:28.182Z,3.30
2017-07-09T14:19:54.461Z,3.40
2017-07-09T14:22:20.719Z,2.50
2017-07-09T14:24:46.985Z,3.00
2017-07-09T14:27:13.274Z,3.10
2017-07-09T14:29:39.547Z,2.83
2017-07-09T14:32:05.846Z,3.20
2017-07-09T14:34:32.140Z,3.10
2017-07-09T14:36:58.398Z,2.90
2017-07-09T14:39:24.661Z,3.20
2017-07-09T14:41:50.938Z,2.50
2017-07-09T14:44:17.190Z,2.90
2017-07-09T14:46:43.452Z,3.10
2017-07-09T14:49:09.732Z,3.10
2017-07-09T14:51:35.998Z,2.90
2017-07-09T14:54:02.330Z,3.00
2017-07-09T14:56:28.613Z,3.00
2017-07-09T14:58:54.874Z,2.93
2017-07-09T15:01:21.134Z,3.17
2017-07-09T15:03:47.394Z,2.73
2017-07-09T15:06:13.678Z,3.23
2017-07-09T15:08:39.951Z,2.83
2017-07-09T15:11:06.206Z,3.00
2017-07-09T15:13:32.458Z,3.23
2017-07-09T15:15:58.719Z,3.17
2017-07-09T15:18:25.763Z,3.63
2017-07-09T15:20:52.763Z,3.83
2017-07-09T15:23:19.017Z,3.43
2017-07-09T15:25:45.274Z,3.40
2017-07-09T15:28:11.536Z,2.77
2017-07-09T15:30:37.825Z,3.37
2017-07-09T15:33:04.813Z,3.47
2017-07-09T15:35:31.102Z,2.30
2017-07-09T15:37:57.374Z,1.73
2017-07-09T15:40:23.625Z,1.37
2017-07-09T15:42:49.897Z,1.60
2017-07-09T15:45:16.169Z,1.40
2017-07-09T15:47:42.426Z,1.47
2017-07-09T15:50:09.435Z,2.10
2017-07-09T15:52:35.685Z,2.37
2017-07-09T15:55:01.960Z,1.93
2017-07-09T15:57:28.223Z,1.73
2017-07-09T15:59:54.505Z,2.30
2017-07-09T16:02:22.513Z,1.90
2017-07-09T16:04:56.029Z,1.80
2017-07-09T16:07:22.715Z,2.10
2017-07-09T16:09:48.981Z,1.40
2017-07-09T16:12:15.242Z,1.43
2017-07-09T16:14:41.513Z,1.40
2017-07-09T16:17:07.771Z,1.50
2017-07-09T16:19:34.059Z,1.53
2017-07-09T16:22:00.346Z,1.63
2017-07-09T16:24:26.646Z,2.43
2017-07-09T16:26:55.613Z,1.90
2017-07-09T16:29:21.885Z,1.90
2017-07-09T16:31:48.206Z,1.97
2017-07-09T16:34:14.475Z,1.40
2017-07-09T16:36:41.481Z,1.60
2017-07-09T16:39:07.788Z,1.93
2017-07-09T16:41:34.062Z,1.70
2017-07-09T16:44:00.333Z,1.40
2017-07-09T16:46:26.606Z,1.80
2017-07-09T16:48:52.904Z,1.50
2017-07-09T16:51:19.167Z,2.63
2017-07-09T16:53:45.418Z,1.87
2017-07-09T16:56:11.706Z,1.97
2017-07-09T16:58:37.982Z,1.97
2017-07-09T17:01:04.992Z,2.20
2017-07-09T17:03:31.259Z,1.80
2017-07-09T17:05:57.527Z,1.80
2017-07-09T17:08:23.803Z,1.67
2017-07-09T17:10:50.105Z,2.27
2017-07-09T17:13:16.374Z,2.17
2017-07-09T17:15:43.387Z,2.37
2017-07-09T17:18:09.691Z,2.20
2017-07-09T17:20:35.987Z,2.20
2017-07-09T17:23:02.977Z,2.07
2017-07-09T17:25:29.319Z,2.40
2017-07-09T17:27:55.583Z,2.17
2017-07-09T17:30:22.602Z,1.30
2017-07-09T17:32:48.899Z,2.30
2017-07-09T17:35:15.189Z,1.83
2017-07-09T17:37:43.215Z,2.33
2017-07-09T17:40:09.502Z,2.10
2017-07-09T17:42:36.761Z,2.17
2017-07-09T17:45:03.049Z,2.43
2017-07-09T17:47:29.326Z,1.90
2017-07-09T17:49:55.596Z,1.83
2017-07-09T17:52:21.855Z,1.93
2017-07-09T17:54:48.861Z,2.47
2017-07-09T17:57:15.226Z,2.33
2017-07-09T17:59:41.494Z,2.53
2017-07-09T18:02:07.750Z,3.00
2017-07-09T18:04:34.019Z,2.60
2017-07-09T18:07:00.285Z,2.13
2017-07-09T18:09:26.554Z,2.13
2017-07-09T18:11:52.813Z,2.10
2017-07-09T18:14:19.090Z,2.47
2017-07-09T18:16:45.350Z,2.30
2017-07-09T18:19:12.366Z,2.00
2017-07-09T18:21:38.645Z,1.93
2017-07-09T18:24:04.886Z,1.83
2017-07-09T18:26:31.148Z,1.90
2017-07-09T18:28:58.474Z,2.30
2017-07-09T18:31:24.758Z,2.77
2017-07-09T18:33:51.041Z,2.30
2017-07-09T18:36:17.330Z,2.40
2017-07-09T18:38:43.609Z,2.53
2017-07-09T18:41:09.873Z,2.00
2017-07-09T18:43:36.170Z,2.40
2017-07-09T18:46:04.526Z,2.37
2017-07-09T18:48:30.789Z,2.60
2017-07-09T18:50:57.161Z,2.27
2017-07-09T18:53:24.154Z,2.80
2017-07-09T18:55:50.426Z,2.20
2017-07-09T18:58:16.703Z,2.10
2017-07-09T19:00:42.967Z,3.27
2017-07-09T19:03:09.231Z,2.93
2017-07-09T19:05:36.247Z,2.40
2017-07-09T19:08:02.517Z,1.80
2017-07-09T19:10:28.786Z,2.30
2017-07-09T19:12:55.374Z,2.70
2017-07-09T19:15:21.646Z,2.70
2017-07-09T19:17:47.909Z,2.60
2017-07-09T19:20:14.955Z,2.47
2017-07-09T19:22:43.957Z,2.30
2017-07-09T19:25:10.967Z,2.67
2017-07-09T19:27:37.234Z,1.73
2017-07-09T19:30:04.270Z,2.97
2017-07-09T19:32:30.579Z,2.77
2017-07-09T19:34:56.868Z,2.00
2017-07-09T19:37:23.134Z,2.37
2017-07-09T19:39:49.415Z,2.13
2017-07-09T19:42:15.681Z,2.00
2017-07-09T19:44:42.012Z,2.00
2017-07-09T19:47:08.330Z,1.90
2017-07-09T19:49:34.589Z,1.87
2017-07-09T19:52:00.862Z,2.93
2017-07-09T19:54:27.126Z,1.97
2017-07-09T19:56:53.374Z,1.93
2017-07-09T19:59:19.642Z,1.70
2017-07-09T20:01:45.942Z,1.80
2017-07-09T20:04:12.232Z,1.70
2017-07-09T20:06:39.589Z,1.57
2017-07-09T20:09:05.845Z,1.77
2017-07-09T20:11:32.121Z,2.00
2017-07-09T20:13:58.426Z,1.70
2017-07-09T20:16:26.266Z,1.70
2017-07-09T20:18:52.575Z,2.20
2017-07-09T20:21:18.846Z,1.50
2017-07-09T20:23:45.139Z,2.23
2017-07-09T20:26:11.443Z,3.10
2017-07-09T20:28:37.718Z,2.10
2017-07-09T20:31:04.030Z,2.27
2017-07-09T20:33:30.331Z,2.63
2017-07-09T20:35:56.593Z,2.03
2017-07-09T20:38:22.918Z,2.20
2017-07-09T20:40:49.195Z,1.60
2017-07-09T20:43:16.478Z,2.00
2017-07-09T20:45:42.771Z,2.60
2017-07-09T20:48:09.117Z,1.63
2017-07-09T20:50:35.388Z,3.43
2017-07-09T20:53:01.674Z,1.43
2017-07-09T20:55:27.932Z,2.10
2017-07-09T20:57:54.219Z,2.20
2017-07-09T21:00:20.495Z,1.77
2017-07-09T21:02:46.750Z,2.40
2017-07-09T21:05:13.036Z,1.93
2017-07-09T21:07:39.324Z,2.63
2017-07-09T21:10:06.329Z,2.97
2017-07-09T21:12:32.588Z,2.60
2017-07-09T21:14:59.665Z,2.70
2017-07-09T21:17:25.965Z,2.23
2017-07-09T21:19:52.988Z,2.33
2017-07-09T21:22:19.246Z,2.60
2017-07-09T21:24:46.266Z,2.57
2017-07-09T21:27:12.526Z,3.00
2017-07-09T21:29:39.547Z,2.50
2017-07-09T21:32:05.811Z,2.30
2017-07-09T21:34:32.078Z,2.57
2017-07-09T21:36:58.338Z,2.20
2017-07-09T21:39:24.619Z,2.10
2017-07-09T21:41:50.901Z,2.40
2017-07-09T21:44:17.174Z,2.63
2017-07-09T21:46:43.430Z,3.00
2017-07-09T21:49:09.686Z,2.70
2017-07-09T21:51:35.981Z,2.67
2017-07-09T21:54:02.294Z,2.40
2017-07-09T21:56:28.553Z,2.33
2017-07-09T21:58:54.833Z,2.57
2017-07-09T22:01:21.099Z,2.43
2017-07-09T22:03:47.397Z,2.53
2017-07-09T22:06:13.661Z,2.30
2017-07-09T22:08:39.922Z,2.23
2017-07-09T22:11:06.355Z,2.13
2017-07-09T22:13:33.381Z,2.00
2017-07-09T22:15:59.675Z,1.70
2017-07-09T22:18:25.971Z,1.73
2017-07-09T22:20:53.002Z,2.00
2017-07-09T22:23:19.285Z,1.77
2017-07-09T22:25:45.555Z,1.40
2017-07-09T22:28:11.844Z,2.20
2017-07-09T22:30:38.149Z,1.13
2017-07-09T22:33:04.423Z,1.20
2017-07-09T22:35:30.814Z,1.67
2017-07-09T22:37:57.077Z,1.43
2017-07-09T22:40:23.330Z,1.30
2017-07-09T22:42:49.642Z,1.50
2017-07-09T22:45:15.923Z,1.60
2017-07-09T22:47:42.192Z,1.10
2017-07-09T22:50:09.450Z,1.30
2017-07-09T22:52:35.722Z,0.90
2017-07-09T22:55:02.014Z,1.33
2017-07-09T22:57:28.302Z,0.93
2017-07-09T22:59:54.565Z,1.47
2017-07-09T23:02:20.822Z,1.27
2017-07-09T23:04:47.106Z,1.27
2017-07-09T23:07:13.391Z,1.67
2017-07-09T23:09:40.430Z,1.53
2017-07-09T23:12:07.438Z,1.50
2017-07-09T23:14:33.694Z,1.67
2017-07-09T23:16:59.955Z,2.00
2017-07-09T23:19:26.270Z,1.23
2017-07-09T23:21:52.556Z,2.07
2017-07-09T23:24:18.808Z,1.93
2017-07-09T23:26:45.505Z,1.77
2017-07-09T23:29:11.771Z,1.90
2017-07-09T23:31:38.066Z,1.90
2017-07-09T23:34:04.342Z,1.73
2017-07-09T23:36:31.374Z,1.93
2017-07-09T23:38:57.636Z,1.50
2017-07-09T23:41:24.640Z,1.80
2017-07-09T23:43:50.939Z,2.40
2017-07-09T23:46:17.213Z,1.90
2017-07-09T23:48:43.538Z,2.03
2017-07-09T23:51:09.813Z,3.00
2017-07-09T23:53:36.102Z,2.13
2017-07-09T23:56:02.391Z,2.07
2017-07-09T23:58:28.717Z,2.20
